Agana Heights, Guam
Current Conditions -  °F | °C
As of 11:54 PM on Saturday 25 Oct 2014 (Local Time) from PGUM Reporting Station
Few Clouds Few Clouds  
Wind Chill: 81°   Ceiling: Unl
Heat Index: 89°   Visibility: 10mi
Dew Point: 78°   Wind: 7mph
Humidity: 91%   Direction: 80°E
Pressure: 29.92"   Gusts: NA
Location:  13.47°N, 144.74°E
Report Text: PGUM 251354Z 08006KT 10SM FEW020 27/26 A2992 RMK AO2 SLP124 T02720256 403220261 $
Loading
Personal Weather Stations






























Interactive Weather Map
Tropical Storm Tracking
New forecast layout! Learn more

10-Day Weather Forecast

Advertisements
Track Severe Weather on mobile